sensor_id;sensor_type;location;lat;lon;timestamp;temperature;humidity
21672;DHT22;10997;52.242;8.168;2023-01-06T00:04:36;9.70;99.90
21672;DHT22;10997;52.242;8.168;2023-01-06T00:09:37;9.60;99.90
21672;DHT22;10997;52.242;8.168;2023-01-06T00:14:37;9.70;99.90
21672;DHT22;10997;52.242;8.168;2023-01-06T00:19:38;9.80;99.90
21672;DHT22;10997;52.242;8.168;2023-01-06T00:24:39;9.80;99.90
21672;DHT22;10997;52.242;8.168;2023-01-06T00:29:39;9.80;99.90
21672;DHT22;10997;52.242;8.168;2023-01-06T00:34:40;9.80;99.90
21672;DHT22;10997;52.242;8.168;2023-01-06T00:39:40;9.80;99.90
21672;DHT22;10997;52.242;8.168;2023-01-06T00:44:41;9.90;99.90
21672;DHT22;10997;52.242;8.168;2023-01-06T00:49:42;9.90;99.90
21672;DHT22;10997;52.242;8.168;2023-01-06T00:54:42;9.90;99.90
21672;DHT22;10997;52.242;8.168;2023-01-06T00:59:43;9.90;99.90
21672;DHT22;10997;52.242;8.168;2023-01-06T01:04:44;9.90;99.90
21672;DHT22;10997;52.242;8.168;2023-01-06T01:09:44;9.90;99.90
21672;DHT22;10997;52.242;8.168;2023-01-06T01:14:50;9.80;99.90
21672;DHT22;10997;52.242;8.168;2023-01-06T01:19:52;9.80;99.90
21672;DHT22;10997;52.242;8.168;2023-01-06T01:24:54;9.80;99.90
21672;DHT22;10997;52.242;8.168;2023-01-06T01:29:55;9.80;99.90
21672;DHT22;10997;52.242;8.168;2023-01-06T01:34:55;9.80;99.90
21672;DHT22;10997;52.242;8.168;2023-01-06T01:39:56;9.80;99.90
21672;DHT22;10997;52.242;8.168;2023-01-06T01:45:24;9.80;99.90
21672;DHT22;10997;52.242;8.168;2023-01-06T01:50:29;9.80;99.90
21672;DHT22;10997;52.242;8.168;2023-01-06T01:55:31;9.80;99.90
21672;DHT22;10997;52.242;8.168;2023-01-06T02:00:34;9.80;99.90
21672;DHT22;10997;52.242;8.168;2023-01-06T02:05:38;9.80;99.90
21672;DHT22;10997;52.242;8.168;2023-01-06T02:10:39;9.80;99.90
21672;DHT22;10997;52.242;8.168;2023-01-06T02:15:41;9.80;99.90
21672;DHT22;10997;52.242;8.168;2023-01-06T02:20:44;9.80;99.90
21672;DHT22;10997;52.242;8.168;2023-01-06T02:31:45;9.80;99.90
21672;DHT22;10997;52.242;8.168;2023-01-06T02:48:22;9.90;99.90
21672;DHT22;10997;52.242;8.168;2023-01-06T02:53:38;9.90;99.90
21672;DHT22;10997;52.242;8.168;2023-01-06T02:58:47;10.00;99.90
21672;DHT22;10997;52.242;8.168;2023-01-06T03:03:51;10.00;99.90
21672;DHT22;10997;52.242;8.168;2023-01-06T03:08:54;10.00;99.90
21672;DHT22;10997;52.242;8.168;2023-01-06T03:13:59;9.90;99.90
21672;DHT22;10997;52.242;8.168;2023-01-06T03:19:02;9.90;99.90
21672;DHT22;10997;52.242;8.168;2023-01-06T03:24:08;9.90;99.90
21672;DHT22;10997;52.242;8.168;2023-01-06T03:29:11;9.80;99.90
21672;DHT22;10997;52.242;8.168;2023-01-06T03:39:48;9.90;99.90
21672;DHT22;10997;52.242;8.168;2023-01-06T03:50:19;9.80;99.90
21672;DHT22;10997;52.242;8.168;2023-01-06T03:55:25;9.90;99.90
21672;DHT22;10997;52.242;8.168;2023-01-06T04:00:34;10.00;99.90
21672;DHT22;10997;52.242;8.168;2023-01-06T04:05:37;10.00;99.90
21672;DHT22;10997;52.242;8.168;2023-01-06T04:10:37;10.00;99.90
21672;DHT22;10997;52.242;8.168;2023-01-06T04:15:38;10.00;99.90
21672;DHT22;10997;52.242;8.168;2023-01-06T04:20:39;10.00;99.90
21672;DHT22;10997;52.242;8.168;2023-01-06T04:25:39;10.00;99.90
21672;DHT22;10997;52.242;8.168;2023-01-06T04:30:40;10.00;99.90
21672;DHT22;10997;52.242;8.168;2023-01-06T04:35:43;9.90;99.90
21672;DHT22;10997;52.242;8.168;2023-01-06T04:40:44;9.90;99.90
21672;DHT22;10997;52.242;8.168;2023-01-06T04:45:45;9.90;99.90
21672;DHT22;10997;52.242;8.168;2023-01-06T04:50:45;9.80;99.90
21672;DHT22;10997;52.242;8.168;2023-01-06T04:55:46;9.80;99.90
21672;DHT22;10997;52.242;8.168;2023-01-06T05:00:46;9.80;99.90
21672;DHT22;10997;52.242;8.168;2023-01-06T05:05:47;9.70;99.90
21672;DHT22;10997;52.242;8.168;2023-01-06T05:10:48;9.70;99.90
21672;DHT22;10997;52.242;8.168;2023-01-06T05:15:48;9.70;99.90
21672;DHT22;10997;52.242;8.168;2023-01-06T05:20:50;9.70;99.90
21672;DHT22;10997;52.242;8.168;2023-01-06T05:25:51;9.70;99.90
21672;DHT22;10997;52.242;8.168;2023-01-06T05:30:51;9.70;99.90
21672;DHT22;10997;52.242;8.168;2023-01-06T05:36:05;9.70;99.90
21672;DHT22;10997;52.242;8.168;2023-01-06T05:41:06;9.80;99.90
21672;DHT22;10997;52.242;8.168;2023-01-06T05:46:09;9.80;99.90
21672;DHT22;10997;52.242;8.168;2023-01-06T05:51:11;9.80;99.90
21672;DHT22;10997;52.242;8.168;2023-01-06T05:56:18;9.80;99.90
21672;DHT22;10997;52.242;8.168;2023-01-06T06:01:23;9.90;99.90
21672;DHT22;10997;52.242;8.168;2023-01-06T06:06:25;9.90;99.90
21672;DHT22;10997;52.242;8.168;2023-01-06T06:11:27;9.90;99.90
21672;DHT22;10997;52.242;8.168;2023-01-06T06:16:27;9.90;99.90
21672;DHT22;10997;52.242;8.168;2023-01-06T06:21:29;9.90;99.90
21672;DHT22;10997;52.242;8.168;2023-01-06T06:26:31;9.90;99.90
21672;DHT22;10997;52.242;8.168;2023-01-06T06:31:31;9.90;99.90
21672;DHT22;10997;52.242;8.168;2023-01-06T06:36:32;9.90;99.90
21672;DHT22;10997;52.242;8.168;2023-01-06T06:41:33;9.90;99.90
21672;DHT22;10997;52.242;8.168;2023-01-06T06:46:33;10.00;99.90
21672;DHT22;10997;52.242;8.168;2023-01-06T06:51:34;10.00;99.90
21672;DHT22;10997;52.242;8.168;2023-01-06T06:56:34;9.90;99.90
21672;DHT22;10997;52.242;8.168;2023-01-06T07:01:35;10.00;99.90
21672;DHT22;10997;52.242;8.168;2023-01-06T07:06:36;10.00;99.90
21672;DHT22;10997;52.242;8.168;2023-01-06T07:11:37;10.00;99.90
21672;DHT22;10997;52.242;8.168;2023-01-06T07:16:37;10.00;99.90
21672;DHT22;10997;52.242;8.168;2023-01-06T07:21:38;10.10;99.90
21672;DHT22;10997;52.242;8.168;2023-01-06T07:26:38;10.00;99.90
21672;DHT22;10997;52.242;8.168;2023-01-06T07:31:39;10.00;99.90
21672;DHT22;10997;52.242;8.168;2023-01-06T07:36:39;10.00;99.90
21672;DHT22;10997;52.242;8.168;2023-01-06T07:41:40;10.00;99.90
21672;DHT22;10997;52.242;8.168;2023-01-06T07:46:41;10.00;99.90
21672;DHT22;10997;52.242;8.168;2023-01-06T07:51:41;10.00;99.90
21672;DHT22;10997;52.242;8.168;2023-01-06T07:56:42;10.00;99.90
21672;DHT22;10997;52.242;8.168;2023-01-06T08:01:43;10.00;99.90
21672;DHT22;10997;52.242;8.168;2023-01-06T08:06:44;10.00;99.90
21672;DHT22;10997;52.242;8.168;2023-01-06T08:11:44;10.00;99.90
21672;DHT22;10997;52.242;8.168;2023-01-06T08:16:45;10.00;99.90
21672;DHT22;10997;52.242;8.168;2023-01-06T08:21:45;9.90;99.90
21672;DHT22;10997;52.242;8.168;2023-01-06T08:26:46;9.80;99.90
21672;DHT22;10997;52.242;8.168;2023-01-06T08:31:46;9.70;99.90
21672;DHT22;10997;52.242;8.168;2023-01-06T08:36:47;9.70;99.90
21672;DHT22;10997;52.242;8.168;2023-01-06T08:41:48;9.70;99.90
21672;DHT22;10997;52.242;8.168;2023-01-06T08:46:50;9.70;99.90
21672;DHT22;10997;52.242;8.168;2023-01-06T08:51:51;9.80;99.90
21672;DHT22;10997;52.242;8.168;2023-01-06T08:56:52;9.90;99.90
21672;DHT22;10997;52.242;8.168;2023-01-06T09:01:52;9.90;99.90
21672;DHT22;10997;52.242;8.168;2023-01-06T09:06:53;9.90;99.90
21672;DHT22;10997;52.242;8.168;2023-01-06T09:11:54;9.80;99.90
21672;DHT22;10997;52.242;8.168;2023-01-06T09:16:55;9.70;99.90
21672;DHT22;10997;52.242;8.168;2023-01-06T09:21:55;9.70;99.90
21672;DHT22;10997;52.242;8.168;2023-01-06T09:26:56;9.80;99.90
21672;DHT22;10997;52.242;8.168;2023-01-06T09:31:56;9.80;99.90
21672;DHT22;10997;52.242;8.168;2023-01-06T09:36:57;9.80;99.90
21672;DHT22;10997;52.242;8.168;2023-01-06T09:46:59;9.90;99.90
21672;DHT22;10997;52.242;8.168;2023-01-06T09:52:04;9.90;99.90
21672;DHT22;10997;52.242;8.168;2023-01-06T09:57:13;9.90;99.90
21672;DHT22;10997;52.242;8.168;2023-01-06T10:02:35;10.00;99.90
21672;DHT22;10997;52.242;8.168;2023-01-06T10:07:48;10.10;99.90
21672;DHT22;10997;52.242;8.168;2023-01-06T10:28:47;10.50;99.90
21672;DHT22;10997;52.242;8.168;2023-01-06T10:33:54;10.50;99.90
21672;DHT22;10997;52.242;8.168;2023-01-06T10:38:55;10.50;99.90
21672;DHT22;10997;52.242;8.168;2023-01-06T10:43:57;10.50;99.90
21672;DHT22;10997;52.242;8.168;2023-01-06T10:48:57;10.50;99.90
21672;DHT22;10997;52.242;8.168;2023-01-06T10:54:01;10.50;99.90
21672;DHT22;10997;52.242;8.168;2023-01-06T10:59:08;10.50;99.90
21672;DHT22;10997;52.242;8.168;2023-01-06T11:04:11;10.60;99.90
21672;DHT22;10997;52.242;8.168;2023-01-06T11:09:23;10.60;99.90
21672;DHT22;10997;52.242;8.168;2023-01-06T11:14:27;10.70;99.90
21672;DHT22;10997;52.242;8.168;2023-01-06T11:19:35;10.60;99.90
21672;DHT22;10997;52.242;8.168;2023-01-06T11:24:49;10.70;99.90
21672;DHT22;10997;52.242;8.168;2023-01-06T11:29:51;10.70;99.90
21672;DHT22;10997;52.242;8.168;2023-01-06T11:35:01;10.80;99.90
21672;DHT22;10997;52.242;8.168;2023-01-06T11:40:15;11.10;99.90
21672;DHT22;10997;52.242;8.168;2023-01-06T11:45:57;11.40;99.90
21672;DHT22;10997;52.242;8.168;2023-01-06T11:51:01;11.40;99.90
21672;DHT22;10997;52.242;8.168;2023-01-06T11:56:16;11.50;99.90
21672;DHT22;10997;52.242;8.168;2023-01-06T12:06:33;11.50;99.90
21672;DHT22;10997;52.242;8.168;2023-01-06T12:11:52;11.40;99.90
21672;DHT22;10997;52.242;8.168;2023-01-06T12:17:16;11.40;99.90
21672;DHT22;10997;52.242;8.168;2023-01-06T12:27:33;11.20;99.90
21672;DHT22;10997;52.242;8.168;2023-01-06T12:32:38;11.10;99.90
21672;DHT22;10997;52.242;8.168;2023-01-06T12:37:44;11.00;99.90
21672;DHT22;10997;52.242;8.168;2023-01-06T12:47:58;10.90;99.90
21672;DHT22;10997;52.242;8.168;2023-01-06T12:53:29;11.00;99.90
21672;DHT22;10997;52.242;8.168;2023-01-06T12:58:49;11.00;99.90
21672;DHT22;10997;52.242;8.168;2023-01-06T13:09:29;11.00;99.90
21672;DHT22;10997;52.242;8.168;2023-01-06T13:19:42;11.10;99.90
21672;DHT22;10997;52.242;8.168;2023-01-06T13:40:57;11.20;99.90
21672;DHT22;10997;52.242;8.168;2023-01-06T13:46:02;11.00;99.90
21672;DHT22;10997;52.242;8.168;2023-01-06T13:51:06;11.00;99.90
21672;DHT22;10997;52.242;8.168;2023-01-06T14:01:29;10.90;99.90
21672;DHT22;10997;52.242;8.168;2023-01-06T14:11:37;11.00;99.90
21672;DHT22;10997;52.242;8.168;2023-01-06T14:16:47;10.90;99.90
21672;DHT22;10997;52.242;8.168;2023-01-06T14:21:51;10.90;99.90
21672;DHT22;10997;52.242;8.168;2023-01-06T14:27:05;10.80;99.90
21672;DHT22;10997;52.242;8.168;2023-01-06T14:37:13;10.60;99.90
21672;DHT22;10997;52.242;8.168;2023-01-06T14:42:28;10.50;99.90
21672;DHT22;10997;52.242;8.168;2023-01-06T14:53:58;10.40;99.90
21672;DHT22;10997;52.242;8.168;2023-01-06T15:03:32;10.30;99.90
21672;DHT22;10997;52.242;8.168;2023-01-06T15:08:33;10.20;99.90
21672;DHT22;10997;52.242;8.168;2023-01-06T15:13:34;10.10;99.90
21672;DHT22;10997;52.242;8.168;2023-01-06T15:18:35;10.00;99.90
21672;DHT22;10997;52.242;8.168;2023-01-06T15:23:46;9.90;99.90
21672;DHT22;10997;52.242;8.168;2023-01-06T15:28:56;9.90;99.90
21672;DHT22;10997;52.242;8.168;2023-01-06T15:34:08;9.80;99.90
21672;DHT22;10997;52.242;8.168;2023-01-06T15:39:14;9.60;99.90
21672;DHT22;10997;52.242;8.168;2023-01-06T15:44:26;9.50;99.90
21672;DHT22;10997;52.242;8.168;2023-01-06T15:49:34;9.30;99.90
21672;DHT22;10997;52.242;8.168;2023-01-06T15:54:36;9.30;99.90
21672;DHT22;10997;52.242;8.168;2023-01-06T15:59:38;9.20;99.90
21672;DHT22;10997;52.242;8.168;2023-01-06T16:04:43;9.20;99.90
21672;DHT22;10997;52.242;8.168;2023-01-06T16:09:48;9.10;99.90
21672;DHT22;10997;52.242;8.168;2023-01-06T16:14:48;9.10;99.90
21672;DHT22;10997;52.242;8.168;2023-01-06T16:19:52;9.00;99.90
21672;DHT22;10997;52.242;8.168;2023-01-06T16:30:32;8.80;99.90
21672;DHT22;10997;52.242;8.168;2023-01-06T16:35:33;8.80;99.90
21672;DHT22;10997;52.242;8.168;2023-01-06T16:40:34;8.70;99.90
21672;DHT22;10997;52.242;8.168;2023-01-06T16:45:37;8.60;99.90
21672;DHT22;10997;52.242;8.168;2023-01-06T16:50:41;8.50;99.90
21672;DHT22;10997;52.242;8.168;2023-01-06T16:55:44;8.50;99.90
21672;DHT22;10997;52.242;8.168;2023-01-06T17:00:47;8.50;99.90
21672;DHT22;10997;52.242;8.168;2023-01-06T17:05:51;8.50;99.90
21672;DHT22;10997;52.242;8.168;2023-01-06T17:10:52;8.60;99.90
21672;DHT22;10997;52.242;8.168;2023-01-06T17:15:58;8.70;99.90
21672;DHT22;10997;52.242;8.168;2023-01-06T17:21:15;8.70;99.90
21672;DHT22;10997;52.242;8.168;2023-01-06T17:26:19;8.70;99.90
21672;DHT22;10997;52.242;8.168;2023-01-06T17:37:22;8.70;99.90
21672;DHT22;10997;52.242;8.168;2023-01-06T17:42:29;8.60;99.90
21672;DHT22;10997;52.242;8.168;2023-01-06T17:47:44;8.60;99.90
21672;DHT22;10997;52.242;8.168;2023-01-06T17:52:45;8.50;99.90
21672;DHT22;10997;52.242;8.168;2023-01-06T17:58:13;8.70;99.90
21672;DHT22;10997;52.242;8.168;2023-01-06T18:03:18;8.70;99.90
21672;DHT22;10997;52.242;8.168;2023-01-06T18:08:21;8.80;99.90
21672;DHT22;10997;52.242;8.168;2023-01-06T18:23:26;8.90;99.90
21672;DHT22;10997;52.242;8.168;2023-01-06T18:28:28;8.90;99.90
21672;DHT22;10997;52.242;8.168;2023-01-06T18:33:29;8.80;99.90
21672;DHT22;10997;52.242;8.168;2023-01-06T18:38:29;8.80;99.90
21672;DHT22;10997;52.242;8.168;2023-01-06T18:43:30;8.80;99.90
21672;DHT22;10997;52.242;8.168;2023-01-06T18:48:32;8.80;99.90
21672;DHT22;10997;52.242;8.168;2023-01-06T18:53:39;8.80;99.90
21672;DHT22;10997;52.242;8.168;2023-01-06T18:58:44;8.90;99.90
21672;DHT22;10997;52.242;8.168;2023-01-06T19:08:48;9.00;99.90
21672;DHT22;10997;52.242;8.168;2023-01-06T19:13:53;9.00;99.90
21672;DHT22;10997;52.242;8.168;2023-01-06T19:19:43;9.10;99.90
21672;DHT22;10997;52.242;8.168;2023-01-06T19:24:33;9.10;99.90
21672;DHT22;10997;52.242;8.168;2023-01-06T19:29:34;9.10;99.90
21672;DHT22;10997;52.242;8.168;2023-01-06T19:34:35;9.10;99.90
21672;DHT22;10997;52.242;8.168;2023-01-06T19:39:39;9.10;99.90
21672;DHT22;10997;52.242;8.168;2023-01-06T19:44:41;9.00;99.90
21672;DHT22;10997;52.242;8.168;2023-01-06T19:49:42;8.90;99.90
21672;DHT22;10997;52.242;8.168;2023-01-06T19:54:48;8.90;99.90
21672;DHT22;10997;52.242;8.168;2023-01-06T19:59:49;8.90;99.90
21672;DHT22;10997;52.242;8.168;2023-01-06T20:04:50;8.90;99.90
21672;DHT22;10997;52.242;8.168;2023-01-06T20:09:50;8.90;99.90
21672;DHT22;10997;52.242;8.168;2023-01-06T20:14:51;9.00;99.90
21672;DHT22;10997;52.242;8.168;2023-01-06T20:19:52;8.90;99.90
21672;DHT22;10997;52.242;8.168;2023-01-06T20:24:52;8.90;99.90
21672;DHT22;10997;52.242;8.168;2023-01-06T20:29:53;8.90;99.90
21672;DHT22;10997;52.242;8.168;2023-01-06T20:34:54;8.90;99.90
21672;DHT22;10997;52.242;8.168;2023-01-06T20:39:54;8.80;99.90
21672;DHT22;10997;52.242;8.168;2023-01-06T20:44:55;8.80;99.90
21672;DHT22;10997;52.242;8.168;2023-01-06T20:49:56;8.90;99.90
21672;DHT22;10997;52.242;8.168;2023-01-06T20:54:56;9.00;99.90
21672;DHT22;10997;52.242;8.168;2023-01-06T20:59:57;9.10;99.90
21672;DHT22;10997;52.242;8.168;2023-01-06T21:04:57;9.20;99.90
21672;DHT22;10997;52.242;8.168;2023-01-06T21:09:59;9.30;99.90
21672;DHT22;10997;52.242;8.168;2023-01-06T21:14:59;9.40;99.90
21672;DHT22;10997;52.242;8.168;2023-01-06T21:20:00;9.40;99.90
21672;DHT22;10997;52.242;8.168;2023-01-06T21:25:01;9.50;99.90
21672;DHT22;10997;52.242;8.168;2023-01-06T21:30:02;9.50;99.90
21672;DHT22;10997;52.242;8.168;2023-01-06T21:35:03;9.60;99.90
21672;DHT22;10997;52.242;8.168;2023-01-06T21:40:04;9.60;99.90
21672;DHT22;10997;52.242;8.168;2023-01-06T21:45:08;9.60;99.90
21672;DHT22;10997;52.242;8.168;2023-01-06T21:50:09;9.60;99.90
21672;DHT22;10997;52.242;8.168;2023-01-06T21:55:10;9.60;99.90
21672;DHT22;10997;52.242;8.168;2023-01-06T22:00:12;9.60;99.90
21672;DHT22;10997;52.242;8.168;2023-01-06T22:05:13;9.60;99.90
21672;DHT22;10997;52.242;8.168;2023-01-06T22:10:16;9.60;99.90
21672;DHT22;10997;52.242;8.168;2023-01-06T22:15:18;9.60;99.90
21672;DHT22;10997;52.242;8.168;2023-01-06T22:20:19;9.60;99.90
21672;DHT22;10997;52.242;8.168;2023-01-06T22:25:20;9.60;99.90
21672;DHT22;10997;52.242;8.168;2023-01-06T22:30:21;9.70;99.90
21672;DHT22;10997;52.242;8.168;2023-01-06T22:35:22;9.60;99.90
21672;DHT22;10997;52.242;8.168;2023-01-06T22:40:24;9.70;99.90
21672;DHT22;10997;52.242;8.168;2023-01-06T22:45:24;9.70;99.90
21672;DHT22;10997;52.242;8.168;2023-01-06T22:50:25;9.70;99.90
21672;DHT22;10997;52.242;8.168;2023-01-06T22:55:25;9.70;99.90
21672;DHT22;10997;52.242;8.168;2023-01-06T23:00:26;9.70;99.90
21672;DHT22;10997;52.242;8.168;2023-01-06T23:05:27;9.80;99.90
21672;DHT22;10997;52.242;8.168;2023-01-06T23:10:28;9.80;99.90
21672;DHT22;10997;52.242;8.168;2023-01-06T23:15:29;9.80;99.90
21672;DHT22;10997;52.242;8.168;2023-01-06T23:20:30;9.80;99.90
21672;DHT22;10997;52.242;8.168;2023-01-06T23:25:31;9.80;99.90
21672;DHT22;10997;52.242;8.168;2023-01-06T23:30:31;9.80;99.90
21672;DHT22;10997;52.242;8.168;2023-01-06T23:35:32;9.80;99.90
21672;DHT22;10997;52.242;8.168;2023-01-06T23:40:32;9.90;99.90
21672;DHT22;10997;52.242;8.168;2023-01-06T23:45:33;9.90;99.90
21672;DHT22;10997;52.242;8.168;2023-01-06T23:50:34;9.90;99.90
21672;DHT22;10997;52.242;8.168;2023-01-06T23:55:34;10.00;99.90
